EFHK Airport Information

Runway Information
Runway 04L Length 10039 ft width 197 ft
Elevation 133 ft Threshold 0 ft Heading 48
Runway 22R Length 10039 ft Width 197 ft
Elevation 178 ft Threshold 196 ft Heading 228
Runway 04R Length 11286 ft width 197 ft
Elevation 150 ft Threshold 787 ft Heading 48
Runway 22L Length 11286 ft Width 197 ft
Elevation 147 ft Threshold 0 ft Heading 228
Runway 15 Length 9518 ft width 197 ft
Elevation 162 ft Threshold 0 ft Heading 154
Runway 33 Length 9518 ft Width 197 ft
Elevation 146 ft Threshold 0 ft Heading 334
Airport Frequencies
Type APP Name APP Frequency 119.1 MHZ
Type APP Name Frequency 129.85 MHZ
Type ATIS Name HEL VOR Frequency 114.2 MHZ
Type ATIS Name Frequency 135.075 MHZ
Type DEL Name Frequency 118.125 MHZ
Type GND Name GND Frequency 121.8 MHZ
Type PMSV Name PMSV METRO Frequency 125.1 MHZ
Type RMP Name RMP Frequency 121.65 MHZ
Type TWR Name 22L/04R an Frequency 118.6 MHZ
Type TWR Name 22R/04L Frequency 118.85 MHZ
Airport Navaids
Type NDB Name Espoo Frequency 381 KHZ
Type VOR-DME Name Helsinki Frequency 114200 KHZ
Type NDB Name Korso Frequency 322 KHZ
Airport Weather Information & NOTAM
ADDS - METARS form results

(1116 UTC 17 July 2018)
 
METAR text: EFHK 171050Z 05010KT 020V100 CAVOK 30/12 Q1015 BECMG 12012G23KT
Conditions at: EFHK (HELSINKI/VANTAA , FI) observed 1050 UTC 17 July 2018
Temperature: 30.0°C (86°F)
Dewpoint: 12.0°C (54°F) [RH = 33%]
Pressure (altimeter): 29.97 inches Hg (1015.0 mb)
Winds: from the NE (50 degrees) at 12 MPH (10 knots; 5.2 m/s)
Visibility: 6 or more miles (10+ km)
Ceiling: ceiling and visibility are OK
Clouds: unknown
Weather: no significant weather observed at this time

METAR text: EFHK 171020Z 06011KT CAVOK 30/12 Q1016 BECMG 12012G23KT
Conditions at: EFHK (HELSINKI/VANTAA , FI) observed 1020 UTC 17 July 2018
Temperature: 30.0°C (86°F)
Dewpoint: 12.0°C (54°F) [RH = 33%]
Pressure (altimeter): 30.00 inches Hg (1016.0 mb)
Winds: from the ENE (60 degrees) at 13 MPH (11 knots; 5.7 m/s)
Visibility: 6 or more miles (10+ km)
Ceiling: ceiling and visibility are OK
Clouds: unknown
Weather: no significant weather observed at this time